sensor_id;sensor_type;location;lat;lon;timestamp;P1;durP1;ratioP1;P2;durP2;ratioP2
25509;SDS011;13413;52.336;21.200;2022-11-20T00:01:09;99.70;;;46.60;;
25509;SDS011;13413;52.336;21.200;2022-11-20T00:04:45;100.10;;;46.40;;
25509;SDS011;13413;52.336;21.200;2022-11-20T00:08:04;104.90;;;49.10;;
25509;SDS011;13413;52.336;21.200;2022-11-20T00:11:23;91.30;;;44.40;;
25509;SDS011;13413;52.336;21.200;2022-11-20T00:14:51;92.40;;;44.90;;
25509;SDS011;13413;52.336;21.200;2022-11-20T00:18:24;92.00;;;43.50;;
25509;SDS011;13413;52.336;21.200;2022-11-20T00:21:43;94.80;;;46.70;;
25509;SDS011;13413;52.336;21.200;2022-11-20T00:25:17;104.40;;;51.20;;
25509;SDS011;13413;52.336;21.200;2022-11-20T00:28:52;98.00;;;44.20;;
25509;SDS011;13413;52.336;21.200;2022-11-20T00:32:13;99.20;;;47.20;;
25509;SDS011;13413;52.336;21.200;2022-11-20T00:40:17;93.40;;;44.50;;
25509;SDS011;13413;52.336;21.200;2022-11-20T00:43:37;89.00;;;43.90;;
25509;SDS011;13413;52.336;21.200;2022-11-20T00:46:56;94.40;;;45.30;;
25509;SDS011;13413;52.336;21.200;2022-11-20T00:50:23;84.60;;;42.30;;
25509;SDS011;13413;52.336;21.200;2022-11-20T00:53:44;97.90;;;46.40;;
25509;SDS011;13413;52.336;21.200;2022-11-20T00:57:18;93.80;;;43.90;;
25509;SDS011;13413;52.336;21.200;2022-11-20T01:05:21;88.40;;;41.60;;
25509;SDS011;13413;52.336;21.200;2022-11-20T01:08:41;96.50;;;45.80;;
25509;SDS011;13413;52.336;21.200;2022-11-20T01:12:02;77.50;;;37.00;;
25509;SDS011;13413;52.336;21.200;2022-11-20T01:20:06;93.20;;;45.40;;
25509;SDS011;13413;52.336;21.200;2022-11-20T01:23:28;85.80;;;44.20;;
25509;SDS011;13413;52.336;21.200;2022-11-20T01:26:50;94.60;;;46.10;;
25509;SDS011;13413;52.336;21.200;2022-11-20T01:30:23;103.10;;;46.30;;
25509;SDS011;13413;52.336;21.200;2022-11-20T01:33:57;96.80;;;47.40;;
25509;SDS011;13413;52.336;21.200;2022-11-20T01:37:15;84.90;;;40.90;;
25509;SDS011;13413;52.336;21.200;2022-11-20T01:40:57;93.50;;;43.20;;
25509;SDS011;13413;52.336;21.200;2022-11-20T01:47:37;85.20;;;42.50;;
25509;SDS011;13413;52.336;21.200;2022-11-20T01:51:00;100.50;;;44.40;;
25509;SDS011;13413;52.336;21.200;2022-11-20T01:54:31;77.50;;;31.30;;
25509;SDS011;13413;52.336;21.200;2022-11-20T01:57:56;83.80;;;39.90;;
25509;SDS011;13413;52.336;21.200;2022-11-20T02:01:18;91.90;;;41.10;;
25509;SDS011;13413;52.336;21.200;2022-11-20T02:04:37;91.70;;;43.90;;
25509;SDS011;13413;52.336;21.200;2022-11-20T02:08:11;91.90;;;45.10;;
25509;SDS011;13413;52.336;21.200;2022-11-20T02:11:31;96.20;;;44.30;;
25509;SDS011;13413;52.336;21.200;2022-11-20T02:19:41;96.70;;;41.90;;
25509;SDS011;13413;52.336;21.200;2022-11-20T02:23:01;94.30;;;46.40;;
25509;SDS011;13413;52.336;21.200;2022-11-20T02:26:27;88.50;;;43.90;;
25509;SDS011;13413;52.336;21.200;2022-11-20T02:30:11;93.00;;;44.90;;
25509;SDS011;13413;52.336;21.200;2022-11-20T02:33:30;97.40;;;46.70;;
25509;SDS011;13413;52.336;21.200;2022-11-20T02:36:50;99.80;;;44.50;;
25509;SDS011;13413;52.336;21.200;2022-11-20T02:40:25;78.50;;;38.80;;
25509;SDS011;13413;52.336;21.200;2022-11-20T02:43:58;133.10;;;57.90;;
25509;SDS011;13413;52.336;21.200;2022-11-20T02:47:18;120.70;;;54.60;;
25509;SDS011;13413;52.336;21.200;2022-11-20T02:50:44;127.00;;;54.40;;
25509;SDS011;13413;52.336;21.200;2022-11-20T02:54:18;105.70;;;46.10;;
25509;SDS011;13413;52.336;21.200;2022-11-20T02:57:43;103.20;;;46.60;;
25509;SDS011;13413;52.336;21.200;2022-11-20T03:01:03;95.50;;;46.30;;
25509;SDS011;13413;52.336;21.200;2022-11-20T03:04:36;87.00;;;44.20;;
25509;SDS011;13413;52.336;21.200;2022-11-20T03:08:09;90.80;;;44.40;;
25509;SDS011;13413;52.336;21.200;2022-11-20T03:11:29;97.40;;;46.50;;
25509;SDS011;13413;52.336;21.200;2022-11-20T03:15:03;89.70;;;43.20;;
25509;SDS011;13413;52.336;21.200;2022-11-20T03:18:38;85.00;;;38.00;;
25509;SDS011;13413;52.336;21.200;2022-11-20T03:21:57;97.60;;;47.20;;
25509;SDS011;13413;52.336;21.200;2022-11-20T03:30:01;99.20;;;48.00;;
25509;SDS011;13413;52.336;21.200;2022-11-20T03:33:21;101.40;;;50.70;;
25509;SDS011;13413;52.336;21.200;2022-11-20T03:36:40;103.00;;;49.00;;
25509;SDS011;13413;52.336;21.200;2022-11-20T03:40:14;100.80;;;48.60;;
25509;SDS011;13413;52.336;21.200;2022-11-20T03:43:49;92.20;;;44.60;;
25509;SDS011;13413;52.336;21.200;2022-11-20T03:47:11;83.00;;;34.70;;
25509;SDS011;13413;52.336;21.200;2022-11-20T04:04:12;75.20;;;35.60;;
25509;SDS011;13413;52.336;21.200;2022-11-20T04:07:38;95.90;;;44.20;;
25509;SDS011;13413;52.336;21.200;2022-11-20T04:10:57;82.60;;;34.00;;
25509;SDS011;13413;52.336;21.200;2022-11-20T04:18:00;100.00;;;40.50;;
25509;SDS011;13413;52.336;21.200;2022-11-20T04:21:20;91.30;;;45.60;;
25509;SDS011;13413;52.336;21.200;2022-11-20T04:24:47;84.70;;;39.80;;
25509;SDS011;13413;52.336;21.200;2022-11-20T04:28:06;96.10;;;47.70;;
25509;SDS011;13413;52.336;21.200;2022-11-20T04:31:26;92.80;;;46.00;;
25509;SDS011;13413;52.336;21.200;2022-11-20T04:35:00;82.80;;;41.30;;
25509;SDS011;13413;52.336;21.200;2022-11-20T04:38:33;89.30;;;45.10;;
25509;SDS011;13413;52.336;21.200;2022-11-20T04:41:52;88.50;;;41.50;;
25509;SDS011;13413;52.336;21.200;2022-11-20T04:45:22;80.60;;;43.10;;
25509;SDS011;13413;52.336;21.200;2022-11-20T04:48:55;84.30;;;42.10;;
25509;SDS011;13413;52.336;21.200;2022-11-20T04:52:15;92.40;;;42.80;;
25509;SDS011;13413;52.336;21.200;2022-11-20T04:55:41;91.90;;;44.70;;
25509;SDS011;13413;52.336;21.200;2022-11-20T04:59:15;75.50;;;41.70;;
25509;SDS011;13413;52.336;21.200;2022-11-20T05:02:42;86.20;;;42.20;;
25509;SDS011;13413;52.336;21.200;2022-11-20T05:06:03;88.50;;;42.10;;
25509;SDS011;13413;52.336;21.200;2022-11-20T05:13:10;86.00;;;41.20;;
25509;SDS011;13413;52.336;21.200;2022-11-20T05:16:29;82.10;;;41.20;;
25509;SDS011;13413;52.336;21.200;2022-11-20T05:20:06;92.70;;;42.90;;
25509;SDS011;13413;52.336;21.200;2022-11-20T05:23:43;76.90;;;39.60;;
25509;SDS011;13413;52.336;21.200;2022-11-20T05:27:02;75.90;;;41.50;;
25509;SDS011;13413;52.336;21.200;2022-11-20T05:39:03;75.40;;;37.70;;
25509;SDS011;13413;52.336;21.200;2022-11-20T05:42:31;86.90;;;39.70;;
25509;SDS011;13413;52.336;21.200;2022-11-20T05:50:24;77.30;;;38.90;;
25509;SDS011;13413;52.336;21.200;2022-11-20T05:53:43;73.60;;;33.60;;
25509;SDS011;13413;52.336;21.200;2022-11-20T05:57:05;78.60;;;39.50;;
25509;SDS011;13413;52.336;21.200;2022-11-20T06:00:32;78.90;;;41.80;;
25509;SDS011;13413;52.336;21.200;2022-11-20T06:04:05;77.00;;;40.00;;
25509;SDS011;13413;52.336;21.200;2022-11-20T06:07:24;86.50;;;42.20;;
25509;SDS011;13413;52.336;21.200;2022-11-20T06:10:51;94.80;;;45.90;;
25509;SDS011;13413;52.336;21.200;2022-11-20T06:14:26;90.00;;;44.90;;
25509;SDS011;13413;52.336;21.200;2022-11-20T06:17:45;83.70;;;44.70;;
25509;SDS011;13413;52.336;21.200;2022-11-20T06:21:10;81.50;;;42.20;;
25509;SDS011;13413;52.336;21.200;2022-11-20T06:24:45;83.00;;;44.10;;
25509;SDS011;13413;52.336;21.200;2022-11-20T06:28:19;105.00;;;46.20;;
25509;SDS011;13413;52.336;21.200;2022-11-20T06:31:38;140.90;;;60.70;;
25509;SDS011;13413;52.336;21.200;2022-11-20T06:35:13;161.80;;;72.40;;
25509;SDS011;13413;52.336;21.200;2022-11-20T06:38:45;117.70;;;54.10;;
25509;SDS011;13413;52.336;21.200;2022-11-20T06:42:06;104.30;;;46.90;;
25509;SDS011;13413;52.336;21.200;2022-11-20T07:02:30;104.60;;;46.20;;
25509;SDS011;13413;52.336;21.200;2022-11-20T07:05:50;110.90;;;51.60;;
25509;SDS011;13413;52.336;21.200;2022-11-20T07:09:12;117.00;;;48.90;;
25509;SDS011;13413;52.336;21.200;2022-11-20T07:12:37;130.90;;;56.90;;
25509;SDS011;13413;52.336;21.200;2022-11-20T07:15:58;107.00;;;49.20;;
25509;SDS011;13413;52.336;21.200;2022-11-20T07:19:49;107.70;;;46.80;;
25509;SDS011;13413;52.336;21.200;2022-11-20T07:23:22;96.40;;;46.80;;
25509;SDS011;13413;52.336;21.200;2022-11-20T07:26:41;101.70;;;49.40;;
25509;SDS011;13413;52.336;21.200;2022-11-20T07:30:17;99.30;;;45.80;;
25509;SDS011;13413;52.336;21.200;2022-11-20T07:33:36;81.70;;;34.10;;
25509;SDS011;13413;52.336;21.200;2022-11-20T07:36:55;111.10;;;52.30;;
25509;SDS011;13413;52.336;21.200;2022-11-20T07:40:15;86.40;;;40.70;;
25509;SDS011;13413;52.336;21.200;2022-11-20T07:43:35;109.40;;;49.60;;
25509;SDS011;13413;52.336;21.200;2022-11-20T07:47:07;93.70;;;43.00;;
25509;SDS011;13413;52.336;21.200;2022-11-20T07:50:33;173.70;;;68.10;;
25509;SDS011;13413;52.336;21.200;2022-11-20T07:53:53;118.00;;;53.20;;
25509;SDS011;13413;52.336;21.200;2022-11-20T07:57:12;106.10;;;49.20;;
25509;SDS011;13413;52.336;21.200;2022-11-20T08:00:39;122.80;;;54.60;;
25509;SDS011;13413;52.336;21.200;2022-11-20T08:04:13;80.80;;;42.60;;
25509;SDS011;13413;52.336;21.200;2022-11-20T08:07:36;89.40;;;41.20;;
25509;SDS011;13413;52.336;21.200;2022-11-20T08:10:57;76.50;;;34.00;;
25509;SDS011;13413;52.336;21.200;2022-11-20T08:14:17;103.90;;;52.20;;
25509;SDS011;13413;52.336;21.200;2022-11-20T08:17:43;126.30;;;46.40;;
25509;SDS011;13413;52.336;21.200;2022-11-20T08:21:03;78.50;;;36.60;;
25509;SDS011;13413;52.336;21.200;2022-11-20T08:30:14;76.40;;;39.70;;
25509;SDS011;13413;52.336;21.200;2022-11-20T08:33:35;85.60;;;41.30;;
25509;SDS011;13413;52.336;21.200;2022-11-20T08:36:55;56.60;;;26.50;;
25509;SDS011;13413;52.336;21.200;2022-11-20T08:40:15;77.80;;;40.70;;
25509;SDS011;13413;52.336;21.200;2022-11-20T08:43:35;73.90;;;35.40;;
25509;SDS011;13413;52.336;21.200;2022-11-20T08:47:08;57.40;;;24.90;;
25509;SDS011;13413;52.336;21.200;2022-11-20T08:50:43;85.30;;;40.40;;
25509;SDS011;13413;52.336;21.200;2022-11-20T08:54:04;65.20;;;32.20;;
25509;SDS011;13413;52.336;21.200;2022-11-20T08:57:25;69.40;;;33.00;;
25509;SDS011;13413;52.336;21.200;2022-11-20T09:00:49;71.20;;;36.20;;
25509;SDS011;13413;52.336;21.200;2022-11-20T09:04:22;73.70;;;37.40;;
25509;SDS011;13413;52.336;21.200;2022-11-20T09:11:05;74.60;;;41.70;;
25509;SDS011;13413;52.336;21.200;2022-11-20T09:14:24;77.20;;;42.00;;
25509;SDS011;13413;52.336;21.200;2022-11-20T09:17:51;81.80;;;44.20;;
25509;SDS011;13413;52.336;21.200;2022-11-20T09:21:12;77.80;;;41.60;;
25509;SDS011;13413;52.336;21.200;2022-11-20T09:24:31;78.10;;;38.40;;
25509;SDS011;13413;52.336;21.200;2022-11-20T09:28:05;80.90;;;41.40;;
25509;SDS011;13413;52.336;21.200;2022-11-20T09:31:25;84.80;;;44.70;;
25509;SDS011;13413;52.336;21.200;2022-11-20T09:34:51;72.80;;;41.90;;
25509;SDS011;13413;52.336;21.200;2022-11-20T09:38:11;62.80;;;32.80;;
25509;SDS011;13413;52.336;21.200;2022-11-20T09:41:43;75.20;;;40.10;;
25509;SDS011;13413;52.336;21.200;2022-11-20T09:45:23;80.80;;;42.60;;
25509;SDS011;13413;52.336;21.200;2022-11-20T09:53:13;62.60;;;35.90;;
25509;SDS011;13413;52.336;21.200;2022-11-20T09:56:46;71.20;;;40.30;;
25509;SDS011;13413;52.336;21.200;2022-11-20T10:00:24;64.90;;;36.40;;
25509;SDS011;13413;52.336;21.200;2022-11-20T10:03:49;67.10;;;37.10;;
25509;SDS011;13413;52.336;21.200;2022-11-20T10:07:15;68.50;;;36.80;;
25509;SDS011;13413;52.336;21.200;2022-11-20T10:10:47;55.60;;;32.30;;
25509;SDS011;13413;52.336;21.200;2022-11-20T10:14:15;53.60;;;29.50;;
25509;SDS011;13413;52.336;21.200;2022-11-20T10:18:01;48.90;;;27.20;;
25509;SDS011;13413;52.336;21.200;2022-11-20T10:21:38;61.00;;;37.10;;
25509;SDS011;13413;52.336;21.200;2022-11-20T10:25:26;66.00;;;35.50;;
25509;SDS011;13413;52.336;21.200;2022-11-20T10:29:11;62.00;;;36.40;;
25509;SDS011;13413;52.336;21.200;2022-11-20T10:32:40;60.50;;;34.90;;
25509;SDS011;13413;52.336;21.200;2022-11-20T10:36:13;64.00;;;37.80;;
25509;SDS011;13413;52.336;21.200;2022-11-20T10:39:47;64.60;;;37.30;;
25509;SDS011;13413;52.336;21.200;2022-11-20T10:43:15;58.30;;;37.30;;
25509;SDS011;13413;52.336;21.200;2022-11-20T10:46:39;67.20;;;37.20;;
25509;SDS011;13413;52.336;21.200;2022-11-20T10:50:25;70.40;;;38.50;;
25509;SDS011;13413;52.336;21.200;2022-11-20T10:53:51;110.70;;;52.00;;
25509;SDS011;13413;52.336;21.200;2022-11-20T10:57:31;76.60;;;39.60;;
25509;SDS011;13413;52.336;21.200;2022-11-20T11:01:13;76.40;;;43.80;;
25509;SDS011;13413;52.336;21.200;2022-11-20T11:04:35;93.50;;;47.10;;
25509;SDS011;13413;52.336;21.200;2022-11-20T11:08:10;112.70;;;57.20;;
25509;SDS011;13413;52.336;21.200;2022-11-20T11:11:32;72.90;;;40.50;;
25509;SDS011;13413;52.336;21.200;2022-11-20T11:15:11;73.20;;;42.70;;
25509;SDS011;13413;52.336;21.200;2022-11-20T11:19:04;58.40;;;35.60;;
25509;SDS011;13413;52.336;21.200;2022-11-20T11:22:25;62.40;;;38.00;;
25509;SDS011;13413;52.336;21.200;2022-11-20T11:25:55;65.30;;;41.70;;
25509;SDS011;13413;52.336;21.200;2022-11-20T11:29:30;77.60;;;45.70;;
25509;SDS011;13413;52.336;21.200;2022-11-20T11:33:03;78.00;;;47.20;;
25509;SDS011;13413;52.336;21.200;2022-11-20T11:36:31;61.20;;;38.10;;
25509;SDS011;13413;52.336;21.200;2022-11-20T11:40:00;64.40;;;38.20;;
25509;SDS011;13413;52.336;21.200;2022-11-20T11:43:34;60.40;;;37.20;;
25509;SDS011;13413;52.336;21.200;2022-11-20T11:46:54;57.10;;;37.10;;
25509;SDS011;13413;52.336;21.200;2022-11-20T12:04:05;57.60;;;32.60;;
25509;SDS011;13413;52.336;21.200;2022-11-20T12:07:37;54.90;;;31.00;;
25509;SDS011;13413;52.336;21.200;2022-11-20T12:11:00;62.90;;;37.00;;
25509;SDS011;13413;52.336;21.200;2022-11-20T12:29:20;58.50;;;35.50;;
25509;SDS011;13413;52.336;21.200;2022-11-20T12:33:02;69.90;;;36.70;;
25509;SDS011;13413;52.336;21.200;2022-11-20T12:36:33;58.60;;;32.40;;
25509;SDS011;13413;52.336;21.200;2022-11-20T12:40:17;52.30;;;34.00;;
25509;SDS011;13413;52.336;21.200;2022-11-20T12:44:10;64.70;;;35.80;;
25509;SDS011;13413;52.336;21.200;2022-11-20T12:47:54;64.80;;;38.30;;
25509;SDS011;13413;52.336;21.200;2022-11-20T12:51:54;61.60;;;38.10;;
25509;SDS011;13413;52.336;21.200;2022-11-20T12:55:45;63.40;;;37.40;;
25509;SDS011;13413;52.336;21.200;2022-11-20T12:59:27;62.60;;;38.50;;
25509;SDS011;13413;52.336;21.200;2022-11-20T13:06:56;56.50;;;33.40;;
25509;SDS011;13413;52.336;21.200;2022-11-20T13:10:26;58.00;;;34.30;;
25509;SDS011;13413;52.336;21.200;2022-11-20T13:14:00;69.90;;;38.80;;
25509;SDS011;13413;52.336;21.200;2022-11-20T13:30:11;140.20;;;61.10;;
25509;SDS011;13413;52.336;21.200;2022-11-20T13:33:34;122.80;;;55.80;;
25509;SDS011;13413;52.336;21.200;2022-11-20T13:36:56;105.80;;;48.10;;
25509;SDS011;13413;52.336;21.200;2022-11-20T13:40:24;80.60;;;42.80;;
25509;SDS011;13413;52.336;21.200;2022-11-20T13:43:44;75.80;;;40.10;;
25509;SDS011;13413;52.336;21.200;2022-11-20T13:47:15;63.80;;;34.70;;
25509;SDS011;13413;52.336;21.200;2022-11-20T14:04:23;89.50;;;51.20;;
25509;SDS011;13413;52.336;21.200;2022-11-20T14:07:49;63.60;;;35.90;;
25509;SDS011;13413;52.336;21.200;2022-11-20T14:11:14;56.30;;;32.70;;
25509;SDS011;13413;52.336;21.200;2022-11-20T14:14:35;60.40;;;33.00;;
25509;SDS011;13413;52.336;21.200;2022-11-20T14:18:12;61.80;;;35.90;;
25509;SDS011;13413;52.336;21.200;2022-11-20T14:21:53;62.20;;;35.00;;
25509;SDS011;13413;52.336;21.200;2022-11-20T14:25:24;57.70;;;33.80;;
25509;SDS011;13413;52.336;21.200;2022-11-20T14:39:21;73.20;;;44.10;;
25509;SDS011;13413;52.336;21.200;2022-11-20T14:42:51;80.70;;;46.20;;
25509;SDS011;13413;52.336;21.200;2022-11-20T14:46:11;89.70;;;50.60;;
25509;SDS011;13413;52.336;21.200;2022-11-20T14:49:38;95.90;;;48.80;;
25509;SDS011;13413;52.336;21.200;2022-11-20T14:53:13;91.70;;;47.10;;
25509;SDS011;13413;52.336;21.200;2022-11-20T14:56:41;91.40;;;49.40;;
25509;SDS011;13413;52.336;21.200;2022-11-20T15:00:25;91.30;;;51.70;;
25509;SDS011;13413;52.336;21.200;2022-11-20T15:04:01;102.50;;;55.70;;
25509;SDS011;13413;52.336;21.200;2022-11-20T15:07:31;110.70;;;57.60;;
25509;SDS011;13413;52.336;21.200;2022-11-20T15:10:53;116.60;;;62.40;;
25509;SDS011;13413;52.336;21.200;2022-11-20T15:29:15;105.50;;;56.70;;
25509;SDS011;13413;52.336;21.200;2022-11-20T15:32:36;105.00;;;55.10;;
25509;SDS011;13413;52.336;21.200;2022-11-20T15:35:55;100.60;;;53.80;;
25509;SDS011;13413;52.336;21.200;2022-11-20T15:39:28;94.50;;;47.60;;
25509;SDS011;13413;52.336;21.200;2022-11-20T15:42:53;98.40;;;55.20;;
25509;SDS011;13413;52.336;21.200;2022-11-20T15:46:14;104.70;;;53.80;;
25509;SDS011;13413;52.336;21.200;2022-11-20T15:49:54;96.90;;;52.20;;
25509;SDS011;13413;52.336;21.200;2022-11-20T15:53:27;104.10;;;53.60;;
25509;SDS011;13413;52.336;21.200;2022-11-20T15:56:47;100.10;;;51.40;;
25509;SDS011;13413;52.336;21.200;2022-11-20T16:00:22;88.00;;;48.90;;
25509;SDS011;13413;52.336;21.200;2022-11-20T16:03:56;91.60;;;45.50;;
25509;SDS011;13413;52.336;21.200;2022-11-20T16:07:16;98.80;;;51.50;;
25509;SDS011;13413;52.336;21.200;2022-11-20T16:10:43;95.80;;;51.80;;
25509;SDS011;13413;52.336;21.200;2022-11-20T16:14:03;76.40;;;31.50;;
25509;SDS011;13413;52.336;21.200;2022-11-20T16:17:38;96.30;;;50.80;;
25509;SDS011;13413;52.336;21.200;2022-11-20T16:21:00;92.70;;;48.00;;
25509;SDS011;13413;52.336;21.200;2022-11-20T16:24:20;94.40;;;51.50;;
25509;SDS011;13413;52.336;21.200;2022-11-20T16:27:40;92.90;;;50.80;;
25509;SDS011;13413;52.336;21.200;2022-11-20T16:31:08;103.90;;;53.20;;
25509;SDS011;13413;52.336;21.200;2022-11-20T16:34:43;104.50;;;56.00;;
25509;SDS011;13413;52.336;21.200;2022-11-20T16:38:17;100.70;;;53.10;;
25509;SDS011;13413;52.336;21.200;2022-11-20T16:41:37;93.90;;;49.90;;
25509;SDS011;13413;52.336;21.200;2022-11-20T16:45:15;101.50;;;51.70;;
25509;SDS011;13413;52.336;21.200;2022-11-20T16:48:36;99.60;;;49.50;;
25509;SDS011;13413;52.336;21.200;2022-11-20T16:51:55;94.20;;;47.80;;
25509;SDS011;13413;52.336;21.200;2022-11-20T16:55:21;109.20;;;55.50;;
25509;SDS011;13413;52.336;21.200;2022-11-20T17:02:27;115.90;;;58.30;;
25509;SDS011;13413;52.336;21.200;2022-11-20T17:05:55;101.20;;;53.60;;
25509;SDS011;13413;52.336;21.200;2022-11-20T17:09:28;99.70;;;52.00;;
25509;SDS011;13413;52.336;21.200;2022-11-20T17:16:12;74.30;;;33.10;;
25509;SDS011;13413;52.336;21.200;2022-11-20T17:23:06;83.10;;;41.70;;
25509;SDS011;13413;52.336;21.200;2022-11-20T17:26:24;83.00;;;39.20;;
25509;SDS011;13413;52.336;21.200;2022-11-20T17:29:56;93.10;;;48.20;;
25509;SDS011;13413;52.336;21.200;2022-11-20T17:33:16;109.40;;;54.90;;
25509;SDS011;13413;52.336;21.200;2022-11-20T17:36:35;113.10;;;54.30;;
25509;SDS011;13413;52.336;21.200;2022-11-20T17:40:17;112.70;;;54.50;;
25509;SDS011;13413;52.336;21.200;2022-11-20T17:43:36;119.00;;;56.10;;
25509;SDS011;13413;52.336;21.200;2022-11-20T17:46:56;105.30;;;53.30;;
25509;SDS011;13413;52.336;21.200;2022-11-20T17:50:30;90.20;;;47.50;;
25509;SDS011;13413;52.336;21.200;2022-11-20T17:54:04;98.10;;;50.70;;
25509;SDS011;13413;52.336;21.200;2022-11-20T17:57:30;92.40;;;48.00;;
25509;SDS011;13413;52.336;21.200;2022-11-20T18:00:49;99.80;;;51.50;;
25509;SDS011;13413;52.336;21.200;2022-11-20T18:04:12;91.00;;;46.80;;
25509;SDS011;13413;52.336;21.200;2022-11-20T18:07:32;93.80;;;48.80;;
25509;SDS011;13413;52.336;21.200;2022-11-20T18:10:51;89.40;;;47.70;;
25509;SDS011;13413;52.336;21.200;2022-11-20T18:14:25;86.50;;;47.50;;
25509;SDS011;13413;52.336;21.200;2022-11-20T18:17:51;94.90;;;49.60;;
25509;SDS011;13413;52.336;21.200;2022-11-20T18:21:11;103.40;;;50.40;;
25509;SDS011;13413;52.336;21.200;2022-11-20T18:24:30;115.60;;;52.60;;
25509;SDS011;13413;52.336;21.200;2022-11-20T18:28:04;124.90;;;55.70;;
25509;SDS011;13413;52.336;21.200;2022-11-20T18:31:24;118.30;;;56.40;;
25509;SDS011;13413;52.336;21.200;2022-11-20T18:34:44;121.70;;;57.60;;
25509;SDS011;13413;52.336;21.200;2022-11-20T18:38:18;109.60;;;54.40;;
25509;SDS011;13413;52.336;21.200;2022-11-20T18:41:37;100.50;;;52.40;;
25509;SDS011;13413;52.336;21.200;2022-11-20T18:45:19;107.30;;;57.10;;
25509;SDS011;13413;52.336;21.200;2022-11-20T18:48:39;97.80;;;54.00;;
25509;SDS011;13413;52.336;21.200;2022-11-20T18:51:59;119.90;;;68.30;;
25509;SDS011;13413;52.336;21.200;2022-11-20T18:58:58;95.20;;;52.70;;
25509;SDS011;13413;52.336;21.200;2022-11-20T19:02:19;108.00;;;55.10;;
25509;SDS011;13413;52.336;21.200;2022-11-20T19:05:47;104.30;;;56.30;;
25509;SDS011;13413;52.336;21.200;2022-11-20T19:09:08;108.80;;;57.30;;
25509;SDS011;13413;52.336;21.200;2022-11-20T19:12:37;118.90;;;62.30;;
25509;SDS011;13413;52.336;21.200;2022-11-20T19:16:01;128.20;;;62.60;;
25509;SDS011;13413;52.336;21.200;2022-11-20T19:19:21;119.50;;;62.00;;
25509;SDS011;13413;52.336;21.200;2022-11-20T19:22:49;128.50;;;63.90;;
25509;SDS011;13413;52.336;21.200;2022-11-20T19:26:09;142.20;;;66.40;;
25509;SDS011;13413;52.336;21.200;2022-11-20T19:29:28;135.30;;;68.10;;
25509;SDS011;13413;52.336;21.200;2022-11-20T19:32:48;126.70;;;66.40;;
25509;SDS011;13413;52.336;21.200;2022-11-20T19:36:11;127.00;;;64.40;;
25509;SDS011;13413;52.336;21.200;2022-11-20T19:39:45;156.30;;;68.20;;
25509;SDS011;13413;52.336;21.200;2022-11-20T19:43:04;165.50;;;78.10;;
25509;SDS011;13413;52.336;21.200;2022-11-20T19:46:24;148.60;;;74.40;;
25509;SDS011;13413;52.336;21.200;2022-11-20T19:49:45;134.50;;;68.00;;
25509;SDS011;13413;52.336;21.200;2022-11-20T19:53:18;120.80;;;62.40;;
25509;SDS011;13413;52.336;21.200;2022-11-20T19:56:38;116.60;;;60.20;;
25509;SDS011;13413;52.336;21.200;2022-11-20T20:00:12;113.30;;;57.90;;
25509;SDS011;13413;52.336;21.200;2022-11-20T20:03:46;126.10;;;62.80;;
25509;SDS011;13413;52.336;21.200;2022-11-20T20:07:07;140.10;;;64.00;;
25509;SDS011;13413;52.336;21.200;2022-11-20T20:10:33;133.60;;;64.50;;
25509;SDS011;13413;52.336;21.200;2022-11-20T20:14:11;116.30;;;56.40;;
25509;SDS011;13413;52.336;21.200;2022-11-20T20:17:38;110.60;;;54.40;;
25509;SDS011;13413;52.336;21.200;2022-11-20T20:21:00;109.70;;;53.50;;
25509;SDS011;13413;52.336;21.200;2022-11-20T20:24:35;92.30;;;49.70;;
25509;SDS011;13413;52.336;21.200;2022-11-20T20:27:54;91.70;;;50.50;;
25509;SDS011;13413;52.336;21.200;2022-11-20T20:31:14;117.50;;;54.50;;
25509;SDS011;13413;52.336;21.200;2022-11-20T20:34:48;101.30;;;49.30;;
25509;SDS011;13413;52.336;21.200;2022-11-20T20:38:08;108.30;;;55.10;;
25509;SDS011;13413;52.336;21.200;2022-11-20T20:41:27;156.70;;;76.30;;
25509;SDS011;13413;52.336;21.200;2022-11-20T20:45:01;145.70;;;67.50;;
25509;SDS011;13413;52.336;21.200;2022-11-20T20:48:36;128.70;;;62.00;;
25509;SDS011;13413;52.336;21.200;2022-11-20T20:51:56;102.20;;;51.30;;
25509;SDS011;13413;52.336;21.200;2022-11-20T20:58:57;107.30;;;53.80;;
25509;SDS011;13413;52.336;21.200;2022-11-20T21:02:17;106.20;;;53.50;;
25509;SDS011;13413;52.336;21.200;2022-11-20T21:10:21;100.90;;;48.70;;
25509;SDS011;13413;52.336;21.200;2022-11-20T21:13:41;105.60;;;50.40;;
25509;SDS011;13413;52.336;21.200;2022-11-20T21:17:08;100.20;;;50.60;;
25509;SDS011;13413;52.336;21.200;2022-11-20T21:20:42;110.00;;;54.00;;
25509;SDS011;13413;52.336;21.200;2022-11-20T21:24:02;102.00;;;51.90;;
25509;SDS011;13413;52.336;21.200;2022-11-20T21:27:22;102.30;;;52.10;;
25509;SDS011;13413;52.336;21.200;2022-11-20T21:30:49;101.80;;;49.90;;
25509;SDS011;13413;52.336;21.200;2022-11-20T21:34:23;100.70;;;51.00;;
25509;SDS011;13413;52.336;21.200;2022-11-20T21:37:49;95.80;;;48.60;;
25509;SDS011;13413;52.336;21.200;2022-11-20T21:41:10;109.90;;;51.80;;
25509;SDS011;13413;52.336;21.200;2022-11-20T21:45:52;101.70;;;51.40;;
25509;SDS011;13413;52.336;21.200;2022-11-20T21:49:16;99.60;;;52.60;;
25509;SDS011;13413;52.336;21.200;2022-11-20T21:52:43;102.20;;;49.90;;
25509;SDS011;13413;52.336;21.200;2022-11-20T21:56:03;99.40;;;51.10;;
25509;SDS011;13413;52.336;21.200;2022-11-20T22:00:45;94.00;;;49.60;;
25509;SDS011;13413;52.336;21.200;2022-11-20T22:04:05;98.80;;;52.10;;
25509;SDS011;13413;52.336;21.200;2022-11-20T22:07:30;91.10;;;44.90;;
25509;SDS011;13413;52.336;21.200;2022-11-20T22:10:56;104.40;;;46.60;;
25509;SDS011;13413;52.336;21.200;2022-11-20T22:14:17;100.90;;;48.00;;
25509;SDS011;13413;52.336;21.200;2022-11-20T22:17:50;99.90;;;49.50;;
25509;SDS011;13413;52.336;21.200;2022-11-20T22:21:09;100.90;;;45.80;;
25509;SDS011;13413;52.336;21.200;2022-11-20T22:24:31;102.30;;;50.80;;
25509;SDS011;13413;52.336;21.200;2022-11-20T22:27:51;96.90;;;46.80;;
25509;SDS011;13413;52.336;21.200;2022-11-20T22:31:10;103.60;;;50.60;;
25509;SDS011;13413;52.336;21.200;2022-11-20T22:34:43;90.70;;;43.60;;
25509;SDS011;13413;52.336;21.200;2022-11-20T22:38:02;106.60;;;53.40;;
25509;SDS011;13413;52.336;21.200;2022-11-20T22:41:21;106.00;;;51.30;;
25509;SDS011;13413;52.336;21.200;2022-11-20T22:44:55;102.40;;;52.50;;
25509;SDS011;13413;52.336;21.200;2022-11-20T22:48:15;105.70;;;50.30;;
25509;SDS011;13413;52.336;21.200;2022-11-20T22:51:34;101.40;;;52.40;;
25509;SDS011;13413;52.336;21.200;2022-11-20T22:55:09;105.30;;;51.70;;
25509;SDS011;13413;52.336;21.200;2022-11-20T22:58:42;99.50;;;52.40;;
25509;SDS011;13413;52.336;21.200;2022-11-20T23:02:02;108.70;;;54.50;;
25509;SDS011;13413;52.336;21.200;2022-11-20T23:05:30;101.90;;;54.10;;